sensor_id;sensor_type;location;lat;lon;timestamp;P1;durP1;ratioP1;P2;durP2;ratioP2
23632;SDS011;11993;48.748;9.166;2023-10-19T00:01:49;25.23;;;17.90;;
23632;SDS011;11993;48.748;9.166;2023-10-19T00:04:14;32.20;;;17.20;;
23632;SDS011;11993;48.748;9.166;2023-10-19T00:06:40;24.55;;;17.60;;
23632;SDS011;11993;48.748;9.166;2023-10-19T00:09:05;24.52;;;17.20;;
23632;SDS011;11993;48.748;9.166;2023-10-19T00:11:36;21.77;;;16.10;;
23632;SDS011;11993;48.748;9.166;2023-10-19T00:14:03;23.55;;;16.88;;
23632;SDS011;11993;48.748;9.166;2023-10-19T00:16:29;21.92;;;16.65;;
23632;SDS011;11993;48.748;9.166;2023-10-19T00:18:55;26.98;;;20.27;;
23632;SDS011;11993;48.748;9.166;2023-10-19T00:21:24;26.38;;;19.15;;
23632;SDS011;11993;48.748;9.166;2023-10-19T00:23:52;24.25;;;18.30;;
23632;SDS011;11993;48.748;9.166;2023-10-19T00:26:22;19.70;;;14.95;;
23632;SDS011;11993;48.748;9.166;2023-10-19T00:28:52;15.82;;;12.50;;
23632;SDS011;11993;48.748;9.166;2023-10-19T00:31:19;18.27;;;10.85;;
23632;SDS011;11993;48.748;9.166;2023-10-19T00:33:48;19.25;;;11.50;;
23632;SDS011;11993;48.748;9.166;2023-10-19T00:36:19;13.95;;;9.93;;
23632;SDS011;11993;48.748;9.166;2023-10-19T00:38:46;10.43;;;8.13;;
23632;SDS011;11993;48.748;9.166;2023-10-19T00:41:15;11.35;;;8.32;;
23632;SDS011;11993;48.748;9.166;2023-10-19T00:43:46;10.70;;;7.40;;
23632;SDS011;11993;48.748;9.166;2023-10-19T00:46:15;10.27;;;7.85;;
23632;SDS011;11993;48.748;9.166;2023-10-19T00:48:48;11.85;;;7.97;;
23632;SDS011;11993;48.748;9.166;2023-10-19T00:51:21;12.38;;;9.13;;
23632;SDS011;11993;48.748;9.166;2023-10-19T00:53:53;12.77;;;8.85;;
23632;SDS011;11993;48.748;9.166;2023-10-19T00:56:24;12.52;;;7.90;;
23632;SDS011;11993;48.748;9.166;2023-10-19T00:58:58;8.52;;;6.75;;
23632;SDS011;11993;48.748;9.166;2023-10-19T01:01:51;9.88;;;6.38;;
23632;SDS011;11993;48.748;9.166;2023-10-19T01:04:28;11.50;;;6.93;;
23632;SDS011;11993;48.748;9.166;2023-10-19T01:06:57;11.65;;;7.30;;
23632;SDS011;11993;48.748;9.166;2023-10-19T01:09:26;14.38;;;7.53;;
23632;SDS011;11993;48.748;9.166;2023-10-19T01:11:52;7.32;;;5.63;;
23632;SDS011;11993;48.748;9.166;2023-10-19T01:14:19;11.95;;;9.13;;
23632;SDS011;11993;48.748;9.166;2023-10-19T01:16:46;13.18;;;8.80;;
23632;SDS011;11993;48.748;9.166;2023-10-19T01:19:15;11.27;;;7.13;;
23632;SDS011;11993;48.748;9.166;2023-10-19T01:21:45;13.95;;;7.85;;
23632;SDS011;11993;48.748;9.166;2023-10-19T01:24:17;10.13;;;6.30;;
23632;SDS011;11993;48.748;9.166;2023-10-19T01:26:46;10.52;;;6.63;;
23632;SDS011;11993;48.748;9.166;2023-10-19T01:29:12;8.95;;;6.38;;
23632;SDS011;11993;48.748;9.166;2023-10-19T01:31:42;9.90;;;6.93;;
23632;SDS011;11993;48.748;9.166;2023-10-19T01:34:31;11.63;;;6.95;;
23632;SDS011;11993;48.748;9.166;2023-10-19T01:36:58;11.75;;;6.85;;
23632;SDS011;11993;48.748;9.166;2023-10-19T01:39:30;9.77;;;6.82;;
23632;SDS011;11993;48.748;9.166;2023-10-19T01:41:56;15.13;;;8.77;;
23632;SDS011;11993;48.748;9.166;2023-10-19T01:44:22;16.80;;;8.15;;
23632;SDS011;11993;48.748;9.166;2023-10-19T01:46:49;13.98;;;8.25;;
23632;SDS011;11993;48.748;9.166;2023-10-19T01:49:15;7.30;;;5.88;;
23632;SDS011;11993;48.748;9.166;2023-10-19T01:51:51;11.75;;;7.30;;
23632;SDS011;11993;48.748;9.166;2023-10-19T01:54:17;10.10;;;7.10;;
23632;SDS011;11993;48.748;9.166;2023-10-19T01:56:47;13.52;;;9.25;;
23632;SDS011;11993;48.748;9.166;2023-10-19T01:59:15;15.77;;;10.95;;
23632;SDS011;11993;48.748;9.166;2023-10-19T02:01:41;12.77;;;8.65;;
23632;SDS011;11993;48.748;9.166;2023-10-19T02:04:10;12.02;;;9.38;;
23632;SDS011;11993;48.748;9.166;2023-10-19T02:06:38;14.30;;;8.15;;
23632;SDS011;11993;48.748;9.166;2023-10-19T02:09:09;10.85;;;7.65;;
23632;SDS011;11993;48.748;9.166;2023-10-19T02:11:43;12.77;;;8.18;;
23632;SDS011;11993;48.748;9.166;2023-10-19T02:14:12;17.55;;;9.63;;
23632;SDS011;11993;48.748;9.166;2023-10-19T02:16:43;10.73;;;7.15;;
23632;SDS011;11993;48.748;9.166;2023-10-19T02:19:11;13.20;;;8.10;;
23632;SDS011;11993;48.748;9.166;2023-10-19T02:21:38;10.93;;;7.68;;
23632;SDS011;11993;48.748;9.166;2023-10-19T02:24:07;11.73;;;7.70;;
23632;SDS011;11993;48.748;9.166;2023-10-19T02:26:35;13.80;;;6.88;;
23632;SDS011;11993;48.748;9.166;2023-10-19T02:29:02;10.75;;;6.97;;
23632;SDS011;11993;48.748;9.166;2023-10-19T02:31:32;16.17;;;8.48;;
23632;SDS011;11993;48.748;9.166;2023-10-19T02:33:59;11.98;;;7.28;;
23632;SDS011;11993;48.748;9.166;2023-10-19T02:36:24;16.77;;;7.80;;
23632;SDS011;11993;48.748;9.166;2023-10-19T02:38:57;8.48;;;6.45;;
23632;SDS011;11993;48.748;9.166;2023-10-19T02:41:23;12.27;;;5.28;;
23632;SDS011;11993;48.748;9.166;2023-10-19T02:43:49;9.05;;;6.97;;
23632;SDS011;11993;48.748;9.166;2023-10-19T02:46:34;14.48;;;5.75;;
23632;SDS011;11993;48.748;9.166;2023-10-19T02:49:02;14.85;;;6.93;;
23632;SDS011;11993;48.748;9.166;2023-10-19T02:51:32;11.65;;;6.25;;
23632;SDS011;11993;48.748;9.166;2023-10-19T02:53:58;10.20;;;5.43;;
23632;SDS011;11993;48.748;9.166;2023-10-19T02:56:27;9.38;;;5.40;;
23632;SDS011;11993;48.748;9.166;2023-10-19T02:58:55;12.57;;;6.22;;
23632;SDS011;11993;48.748;9.166;2023-10-19T03:01:28;12.27;;;4.93;;
23632;SDS011;11993;48.748;9.166;2023-10-19T03:03:57;17.10;;;5.55;;
23632;SDS011;11993;48.748;9.166;2023-10-19T03:06:26;10.00;;;4.90;;
23632;SDS011;11993;48.748;9.166;2023-10-19T03:08:59;6.68;;;4.32;;
23632;SDS011;11993;48.748;9.166;2023-10-19T03:11:30;9.77;;;4.70;;
23632;SDS011;11993;48.748;9.166;2023-10-19T03:13:57;6.32;;;4.15;;
23632;SDS011;11993;48.748;9.166;2023-10-19T03:16:23;7.05;;;4.30;;
23632;SDS011;11993;48.748;9.166;2023-10-19T03:18:49;11.63;;;5.00;;
23632;SDS011;11993;48.748;9.166;2023-10-19T03:21:18;10.75;;;4.20;;
23632;SDS011;11993;48.748;9.166;2023-10-19T03:23:44;9.15;;;4.55;;
23632;SDS011;11993;48.748;9.166;2023-10-19T03:26:10;9.57;;;4.63;;
23632;SDS011;11993;48.748;9.166;2023-10-19T03:28:54;9.77;;;5.10;;
23632;SDS011;11993;48.748;9.166;2023-10-19T03:31:21;12.05;;;4.60;;
23632;SDS011;11993;48.748;9.166;2023-10-19T03:33:50;7.95;;;4.45;;
23632;SDS011;11993;48.748;9.166;2023-10-19T03:36:23;7.28;;;4.32;;
23632;SDS011;11993;48.748;9.166;2023-10-19T03:38:49;7.47;;;3.95;;
23632;SDS011;11993;48.748;9.166;2023-10-19T03:41:19;5.43;;;4.20;;
23632;SDS011;11993;48.748;9.166;2023-10-19T03:43:53;9.70;;;4.72;;
23632;SDS011;11993;48.748;9.166;2023-10-19T03:46:19;12.57;;;5.75;;
23632;SDS011;11993;48.748;9.166;2023-10-19T03:49:04;6.70;;;4.38;;
23632;SDS011;11993;48.748;9.166;2023-10-19T03:51:36;11.75;;;5.10;;
23632;SDS011;11993;48.748;9.166;2023-10-19T03:54:08;7.65;;;4.20;;
23632;SDS011;11993;48.748;9.166;2023-10-19T03:56:39;9.43;;;4.88;;
23632;SDS011;11993;48.748;9.166;2023-10-19T03:59:06;8.43;;;4.30;;
23632;SDS011;11993;48.748;9.166;2023-10-19T04:01:32;6.40;;;4.72;;
23632;SDS011;11993;48.748;9.166;2023-10-19T04:03:57;13.38;;;5.55;;
23632;SDS011;11993;48.748;9.166;2023-10-19T04:06:23;11.32;;;4.47;;
23632;SDS011;11993;48.748;9.166;2023-10-19T04:08:48;10.43;;;4.70;;
23632;SDS011;11993;48.748;9.166;2023-10-19T04:11:16;8.15;;;4.63;;
23632;SDS011;11993;48.748;9.166;2023-10-19T04:16:18;6.05;;;4.32;;
23632;SDS011;11993;48.748;9.166;2023-10-19T04:18:44;11.93;;;4.03;;
23632;SDS011;11993;48.748;9.166;2023-10-19T04:21:10;12.40;;;5.90;;
23632;SDS011;11993;48.748;9.166;2023-10-19T04:23:35;8.55;;;4.43;;
23632;SDS011;11993;48.748;9.166;2023-10-19T04:26:02;6.78;;;3.90;;
23632;SDS011;11993;48.748;9.166;2023-10-19T04:28:35;9.15;;;4.90;;
23632;SDS011;11993;48.748;9.166;2023-10-19T04:31:14;9.13;;;5.25;;
23632;SDS011;11993;48.748;9.166;2023-10-19T04:33:41;9.98;;;3.80;;
23632;SDS011;11993;48.748;9.166;2023-10-19T04:36:16;6.17;;;3.80;;
23632;SDS011;11993;48.748;9.166;2023-10-19T04:38:44;8.10;;;4.13;;
23632;SDS011;11993;48.748;9.166;2023-10-19T04:41:10;7.97;;;4.22;;
23632;SDS011;11993;48.748;9.166;2023-10-19T04:43:36;7.78;;;4.25;;
23632;SDS011;11993;48.748;9.166;2023-10-19T04:46:04;10.63;;;5.05;;
23632;SDS011;11993;48.748;9.166;2023-10-19T04:48:40;9.32;;;4.20;;
23632;SDS011;11993;48.748;9.166;2023-10-19T04:51:07;12.88;;;4.82;;
23632;SDS011;11993;48.748;9.166;2023-10-19T04:53:34;10.98;;;4.32;;
23632;SDS011;11993;48.748;9.166;2023-10-19T04:56:00;7.60;;;4.43;;
23632;SDS011;11993;48.748;9.166;2023-10-19T04:58:27;11.88;;;4.50;;
23632;SDS011;11993;48.748;9.166;2023-10-19T05:00:53;7.38;;;5.03;;
23632;SDS011;11993;48.748;9.166;2023-10-19T05:03:19;6.95;;;3.80;;
23632;SDS011;11993;48.748;9.166;2023-10-19T05:05:44;8.93;;;4.43;;
23632;SDS011;11993;48.748;9.166;2023-10-19T05:08:10;7.00;;;4.20;;
23632;SDS011;11993;48.748;9.166;2023-10-19T05:10:36;9.65;;;4.40;;
23632;SDS011;11993;48.748;9.166;2023-10-19T05:13:02;11.40;;;4.28;;
23632;SDS011;11993;48.748;9.166;2023-10-19T05:15:28;8.25;;;4.63;;
23632;SDS011;11993;48.748;9.166;2023-10-19T05:17:54;7.85;;;4.05;;
23632;SDS011;11993;48.748;9.166;2023-10-19T05:20:19;8.35;;;4.40;;
23632;SDS011;11993;48.748;9.166;2023-10-19T05:22:46;7.28;;;4.35;;
23632;SDS011;11993;48.748;9.166;2023-10-19T05:25:12;8.98;;;4.85;;
23632;SDS011;11993;48.748;9.166;2023-10-19T05:27:43;8.02;;;4.30;;
23632;SDS011;11993;48.748;9.166;2023-10-19T05:30:12;12.57;;;4.28;;
23632;SDS011;11993;48.748;9.166;2023-10-19T05:32:38;6.95;;;4.47;;
23632;SDS011;11993;48.748;9.166;2023-10-19T05:35:03;6.43;;;3.58;;
23632;SDS011;11993;48.748;9.166;2023-10-19T05:37:30;7.45;;;4.30;;
23632;SDS011;11993;48.748;9.166;2023-10-19T05:39:56;5.97;;;3.50;;
23632;SDS011;11993;48.748;9.166;2023-10-19T05:42:21;6.38;;;4.30;;
23632;SDS011;11993;48.748;9.166;2023-10-19T05:44:47;9.25;;;4.05;;
23632;SDS011;11993;48.748;9.166;2023-10-19T05:47:13;10.80;;;4.15;;
23632;SDS011;11993;48.748;9.166;2023-10-19T05:49:38;11.05;;;4.55;;
23632;SDS011;11993;48.748;9.166;2023-10-19T05:52:04;12.18;;;4.95;;
23632;SDS011;11993;48.748;9.166;2023-10-19T05:54:29;12.60;;;4.75;;
23632;SDS011;11993;48.748;9.166;2023-10-19T05:56:55;8.88;;;4.53;;
23632;SDS011;11993;48.748;9.166;2023-10-19T05:59:21;11.25;;;5.20;;
23632;SDS011;11993;48.748;9.166;2023-10-19T06:01:48;5.10;;;3.97;;
23632;SDS011;11993;48.748;9.166;2023-10-19T06:04:14;7.32;;;4.30;;
23632;SDS011;11993;48.748;9.166;2023-10-19T06:06:40;8.88;;;4.53;;
23632;SDS011;11993;48.748;9.166;2023-10-19T06:09:05;12.57;;;4.57;;
23632;SDS011;11993;48.748;9.166;2023-10-19T06:11:33;9.38;;;4.47;;
23632;SDS011;11993;48.748;9.166;2023-10-19T06:14:02;11.07;;;4.68;;
23632;SDS011;11993;48.748;9.166;2023-10-19T06:16:32;7.38;;;4.90;;
23632;SDS011;11993;48.748;9.166;2023-10-19T06:18:58;9.48;;;4.60;;
23632;SDS011;11993;48.748;9.166;2023-10-19T06:21:24;6.45;;;3.70;;
23632;SDS011;11993;48.748;9.166;2023-10-19T06:23:50;8.88;;;5.50;;
23632;SDS011;11993;48.748;9.166;2023-10-19T06:26:17;11.95;;;5.28;;
23632;SDS011;11993;48.748;9.166;2023-10-19T06:28:42;7.28;;;4.15;;
23632;SDS011;11993;48.748;9.166;2023-10-19T06:31:08;6.00;;;4.30;;
23632;SDS011;11993;48.748;9.166;2023-10-19T06:33:34;8.35;;;4.63;;
23632;SDS011;11993;48.748;9.166;2023-10-19T06:36:00;10.90;;;4.47;;
23632;SDS011;11993;48.748;9.166;2023-10-19T06:38:28;7.85;;;4.75;;
23632;SDS011;11993;48.748;9.166;2023-10-19T06:40:54;11.95;;;4.65;;
23632;SDS011;11993;48.748;9.166;2023-10-19T06:43:20;8.18;;;5.00;;
23632;SDS011;11993;48.748;9.166;2023-10-19T06:45:48;7.80;;;4.32;;
23632;SDS011;11993;48.748;9.166;2023-10-19T06:48:14;10.43;;;5.10;;
23632;SDS011;11993;48.748;9.166;2023-10-19T06:50:40;8.52;;;4.78;;
23632;SDS011;11993;48.748;9.166;2023-10-19T06:53:06;6.72;;;3.97;;
23632;SDS011;11993;48.748;9.166;2023-10-19T06:55:32;6.82;;;3.85;;
23632;SDS011;11993;48.748;9.166;2023-10-19T06:57:58;11.93;;;4.40;;
23632;SDS011;11993;48.748;9.166;2023-10-19T07:00:24;6.75;;;3.53;;
23632;SDS011;11993;48.748;9.166;2023-10-19T07:02:57;11.40;;;4.20;;
23632;SDS011;11993;48.748;9.166;2023-10-19T07:05:25;6.57;;;3.83;;
23632;SDS011;11993;48.748;9.166;2023-10-19T07:07:55;8.15;;;3.42;;
23632;SDS011;11993;48.748;9.166;2023-10-19T07:10:22;8.98;;;3.60;;
23632;SDS011;11993;48.748;9.166;2023-10-19T07:12:50;8.45;;;3.67;;
23632;SDS011;11993;48.748;9.166;2023-10-19T07:15:16;9.85;;;4.15;;
23632;SDS011;11993;48.748;9.166;2023-10-19T07:17:44;10.60;;;3.80;;
23632;SDS011;11993;48.748;9.166;2023-10-19T07:20:11;10.13;;;3.80;;
23632;SDS011;11993;48.748;9.166;2023-10-19T07:22:51;10.23;;;3.83;;
23632;SDS011;11993;48.748;9.166;2023-10-19T07:25:17;10.18;;;4.78;;
23632;SDS011;11993;48.748;9.166;2023-10-19T07:27:49;6.60;;;3.75;;
23632;SDS011;11993;48.748;9.166;2023-10-19T07:30:16;7.93;;;3.85;;
23632;SDS011;11993;48.748;9.166;2023-10-19T07:32:47;11.32;;;4.45;;
23632;SDS011;11993;48.748;9.166;2023-10-19T07:35:16;10.07;;;4.22;;
23632;SDS011;11993;48.748;9.166;2023-10-19T07:37:42;8.15;;;4.18;;
23632;SDS011;11993;48.748;9.166;2023-10-19T07:40:09;5.75;;;3.83;;
23632;SDS011;11993;48.748;9.166;2023-10-19T07:42:39;8.70;;;3.80;;
23632;SDS011;11993;48.748;9.166;2023-10-19T07:45:06;7.65;;;3.95;;
23632;SDS011;11993;48.748;9.166;2023-10-19T07:47:36;7.18;;;3.97;;
23632;SDS011;11993;48.748;9.166;2023-10-19T07:50:05;9.40;;;4.35;;
23632;SDS011;11993;48.748;9.166;2023-10-19T07:52:34;10.02;;;3.92;;
23632;SDS011;11993;48.748;9.166;2023-10-19T07:55:00;10.95;;;4.60;;
23632;SDS011;11993;48.748;9.166;2023-10-19T07:57:27;9.48;;;3.92;;
23632;SDS011;11993;48.748;9.166;2023-10-19T07:59:54;7.15;;;3.78;;
23632;SDS011;11993;48.748;9.166;2023-10-19T08:02:21;12.15;;;4.65;;
23632;SDS011;11993;48.748;9.166;2023-10-19T08:04:49;6.18;;;3.85;;
23632;SDS011;11993;48.748;9.166;2023-10-19T08:07:16;9.27;;;4.00;;
23632;SDS011;11993;48.748;9.166;2023-10-19T08:09:42;7.53;;;4.93;;
23632;SDS011;11993;48.748;9.166;2023-10-19T08:12:08;11.48;;;5.03;;
23632;SDS011;11993;48.748;9.166;2023-10-19T08:14:35;6.07;;;4.68;;
23632;SDS011;11993;48.748;9.166;2023-10-19T08:17:01;7.30;;;4.70;;
23632;SDS011;11993;48.748;9.166;2023-10-19T08:19:28;8.27;;;4.90;;
23632;SDS011;11993;48.748;9.166;2023-10-19T08:21:56;6.65;;;5.22;;
23632;SDS011;11993;48.748;9.166;2023-10-19T08:24:22;9.18;;;5.30;;
23632;SDS011;11993;48.748;9.166;2023-10-19T08:26:48;10.15;;;5.35;;
23632;SDS011;11993;48.748;9.166;2023-10-19T08:29:15;8.85;;;4.88;;
23632;SDS011;11993;48.748;9.166;2023-10-19T08:31:42;8.93;;;5.45;;
23632;SDS011;11993;48.748;9.166;2023-10-19T08:34:11;7.47;;;4.38;;
23632;SDS011;11993;48.748;9.166;2023-10-19T08:36:38;9.02;;;4.75;;
23632;SDS011;11993;48.748;9.166;2023-10-19T08:39:05;11.13;;;4.95;;
23632;SDS011;11993;48.748;9.166;2023-10-19T08:41:33;10.02;;;4.90;;
23632;SDS011;11993;48.748;9.166;2023-10-19T08:44:00;8.27;;;4.50;;
23632;SDS011;11993;48.748;9.166;2023-10-19T08:46:27;6.68;;;4.97;;
23632;SDS011;11993;48.748;9.166;2023-10-19T08:48:53;10.65;;;4.78;;
23632;SDS011;11993;48.748;9.166;2023-10-19T08:51:22;7.75;;;5.38;;
23632;SDS011;11993;48.748;9.166;2023-10-19T08:53:50;9.30;;;5.45;;
23632;SDS011;11993;48.748;9.166;2023-10-19T08:56:19;7.05;;;4.72;;
23632;SDS011;11993;48.748;9.166;2023-10-19T08:58:48;9.85;;;5.35;;
23632;SDS011;11993;48.748;9.166;2023-10-19T09:01:17;12.95;;;5.63;;
23632;SDS011;11993;48.748;9.166;2023-10-19T09:03:44;10.57;;;6.80;;
23632;SDS011;11993;48.748;9.166;2023-10-19T09:06:11;10.10;;;6.38;;
23632;SDS011;11993;48.748;9.166;2023-10-19T09:08:37;10.32;;;5.43;;
23632;SDS011;11993;48.748;9.166;2023-10-19T09:11:08;9.30;;;5.60;;
23632;SDS011;11993;48.748;9.166;2023-10-19T09:13:50;9.05;;;4.70;;
23632;SDS011;11993;48.748;9.166;2023-10-19T09:16:17;5.93;;;3.70;;
23632;SDS011;11993;48.748;9.166;2023-10-19T09:18:47;5.20;;;3.53;;
23632;SDS011;11993;48.748;9.166;2023-10-19T09:21:17;9.05;;;4.10;;
23632;SDS011;11993;48.748;9.166;2023-10-19T09:23:50;9.50;;;4.30;;
23632;SDS011;11993;48.748;9.166;2023-10-19T09:26:16;6.57;;;4.03;;
23632;SDS011;11993;48.748;9.166;2023-10-19T09:28:45;17.55;;;4.32;;
23632;SDS011;11993;48.748;9.166;2023-10-19T09:31:13;9.48;;;4.38;;
23632;SDS011;11993;48.748;9.166;2023-10-19T09:33:41;10.02;;;4.35;;
23632;SDS011;11993;48.748;9.166;2023-10-19T09:36:08;6.22;;;3.95;;
23632;SDS011;11993;48.748;9.166;2023-10-19T09:38:50;10.15;;;4.10;;
23632;SDS011;11993;48.748;9.166;2023-10-19T09:41:20;7.72;;;4.70;;
23632;SDS011;11993;48.748;9.166;2023-10-19T09:43:47;10.88;;;4.70;;
23632;SDS011;11993;48.748;9.166;2023-10-19T09:46:20;5.35;;;3.67;;
23632;SDS011;11993;48.748;9.166;2023-10-19T09:48:47;5.28;;;3.88;;
23632;SDS011;11993;48.748;9.166;2023-10-19T09:51:13;6.50;;;3.50;;
23632;SDS011;11993;48.748;9.166;2023-10-19T09:53:41;4.82;;;3.65;;
23632;SDS011;11993;48.748;9.166;2023-10-19T09:56:10;6.03;;;4.55;;
23632;SDS011;11993;48.748;9.166;2023-10-19T09:58:48;9.57;;;4.10;;
23632;SDS011;11993;48.748;9.166;2023-10-19T10:01:18;5.68;;;3.97;;
23632;SDS011;11993;48.748;9.166;2023-10-19T10:03:50;5.53;;;4.40;;
23632;SDS011;11993;48.748;9.166;2023-10-19T10:07:02;8.07;;;4.22;;
23632;SDS011;11993;48.748;9.166;2023-10-19T10:09:20;8.50;;;5.22;;
23632;SDS011;11993;48.748;9.166;2023-10-19T10:11:49;12.52;;;5.90;;
23632;SDS011;11993;48.748;9.166;2023-10-19T10:14:24;14.95;;;5.72;;
23632;SDS011;11993;48.748;9.166;2023-10-19T10:17:00;13.82;;;6.45;;
23632;SDS011;11993;48.748;9.166;2023-10-19T10:19:26;22.40;;;14.27;;
23632;SDS011;11993;48.748;9.166;2023-10-19T10:22:10;9.68;;;7.20;;
23632;SDS011;11993;48.748;9.166;2023-10-19T10:24:41;7.38;;;5.53;;
23632;SDS011;11993;48.748;9.166;2023-10-19T10:27:07;11.27;;;6.53;;
23632;SDS011;11993;48.748;9.166;2023-10-19T10:29:33;11.45;;;6.28;;
23632;SDS011;11993;48.748;9.166;2023-10-19T10:31:58;11.57;;;6.22;;
23632;SDS011;11993;48.748;9.166;2023-10-19T10:37:03;11.23;;;5.75;;
23632;SDS011;11993;48.748;9.166;2023-10-19T10:39:30;14.23;;;5.55;;
23632;SDS011;11993;48.748;9.166;2023-10-19T10:41:57;10.25;;;4.85;;
23632;SDS011;11993;48.748;9.166;2023-10-19T10:47:10;6.53;;;4.82;;
23632;SDS011;11993;48.748;9.166;2023-10-19T10:49:47;14.45;;;7.18;;
23632;SDS011;11993;48.748;9.166;2023-10-19T10:52:35;8.38;;;6.00;;
23632;SDS011;11993;48.748;9.166;2023-10-19T10:55:07;10.52;;;5.68;;
23632;SDS011;11993;48.748;9.166;2023-10-19T10:57:34;10.43;;;6.55;;
23632;SDS011;11993;48.748;9.166;2023-10-19T11:00:00;9.90;;;5.55;;
23632;SDS011;11993;48.748;9.166;2023-10-19T11:02:29;11.05;;;6.63;;
23632;SDS011;11993;48.748;9.166;2023-10-19T11:04:54;11.52;;;5.68;;
23632;SDS011;11993;48.748;9.166;2023-10-19T11:07:20;9.73;;;6.15;;
23632;SDS011;11993;48.748;9.166;2023-10-19T11:09:46;13.38;;;6.20;;
23632;SDS011;11993;48.748;9.166;2023-10-19T11:12:12;8.48;;;6.25;;
23632;SDS011;11993;48.748;9.166;2023-10-19T11:14:56;8.60;;;5.10;;
23632;SDS011;11993;48.748;9.166;2023-10-19T11:17:25;9.15;;;4.43;;
23632;SDS011;11993;48.748;9.166;2023-10-19T11:19:57;8.70;;;4.95;;
23632;SDS011;11993;48.748;9.166;2023-10-19T11:22:26;6.45;;;4.15;;
23632;SDS011;11993;48.748;9.166;2023-10-19T11:24:52;9.45;;;4.60;;
23632;SDS011;11993;48.748;9.166;2023-10-19T11:27:28;11.40;;;4.38;;
23632;SDS011;11993;48.748;9.166;2023-10-19T11:29:57;7.90;;;3.38;;
23632;SDS011;11993;48.748;9.166;2023-10-19T11:32:24;7.65;;;3.33;;
23632;SDS011;11993;48.748;9.166;2023-10-19T11:34:54;6.22;;;3.55;;
23632;SDS011;11993;48.748;9.166;2023-10-19T11:37:20;6.10;;;2.67;;
23632;SDS011;11993;48.748;9.166;2023-10-19T11:39:46;8.95;;;3.00;;
23632;SDS011;11993;48.748;9.166;2023-10-19T11:42:11;5.28;;;2.63;;
23632;SDS011;11993;48.748;9.166;2023-10-19T11:44:38;4.60;;;2.88;;
23632;SDS011;11993;48.748;9.166;2023-10-19T11:47:04;4.93;;;2.70;;
23632;SDS011;11993;48.748;9.166;2023-10-19T11:49:30;6.05;;;3.30;;
23632;SDS011;11993;48.748;9.166;2023-10-19T11:51:55;6.78;;;4.47;;
23632;SDS011;11993;48.748;9.166;2023-10-19T11:54:22;13.63;;;5.57;;
23632;SDS011;11993;48.748;9.166;2023-10-19T11:56:48;9.18;;;4.47;;
23632;SDS011;11993;48.748;9.166;2023-10-19T11:59:14;8.00;;;3.55;;
23632;SDS011;11993;48.748;9.166;2023-10-19T12:01:40;6.80;;;2.67;;
23632;SDS011;11993;48.748;9.166;2023-10-19T12:04:06;4.90;;;2.55;;
23632;SDS011;11993;48.748;9.166;2023-10-19T12:06:31;3.95;;;2.40;;
23632;SDS011;11993;48.748;9.166;2023-10-19T12:08:57;4.32;;;2.97;;
23632;SDS011;11993;48.748;9.166;2023-10-19T12:11:27;4.60;;;2.65;;
23632;SDS011;11993;48.748;9.166;2023-10-19T12:13:53;6.57;;;3.50;;
23632;SDS011;11993;48.748;9.166;2023-10-19T12:16:19;5.40;;;3.35;;
23632;SDS011;11993;48.748;9.166;2023-10-19T12:18:48;7.55;;;2.80;;
23632;SDS011;11993;48.748;9.166;2023-10-19T12:21:14;6.57;;;3.53;;
23632;SDS011;11993;48.748;9.166;2023-10-19T12:23:40;7.95;;;3.22;;
23632;SDS011;11993;48.748;9.166;2023-10-19T12:26:08;4.10;;;2.80;;
23632;SDS011;11993;48.748;9.166;2023-10-19T12:28:37;6.95;;;3.65;;
23632;SDS011;11993;48.748;9.166;2023-10-19T12:31:06;7.32;;;3.30;;
23632;SDS011;11993;48.748;9.166;2023-10-19T12:33:35;3.70;;;2.83;;
23632;SDS011;11993;48.748;9.166;2023-10-19T12:36:01;6.63;;;3.17;;
23632;SDS011;11993;48.748;9.166;2023-10-19T12:38:43;4.18;;;3.35;;
23632;SDS011;11993;48.748;9.166;2023-10-19T12:41:09;7.50;;;3.65;;
23632;SDS011;11993;48.748;9.166;2023-10-19T12:43:34;5.93;;;3.47;;
23632;SDS011;11993;48.748;9.166;2023-10-19T12:46:00;5.70;;;3.25;;
23632;SDS011;11993;48.748;9.166;2023-10-19T12:48:26;7.28;;;4.20;;
23632;SDS011;11993;48.748;9.166;2023-10-19T12:50:58;5.60;;;4.00;;
23632;SDS011;11993;48.748;9.166;2023-10-19T12:53:24;13.93;;;4.75;;
23632;SDS011;11993;48.748;9.166;2023-10-19T12:55:50;9.50;;;4.90;;
23632;SDS011;11993;48.748;9.166;2023-10-19T12:58:16;13.20;;;5.95;;
23632;SDS011;11993;48.748;9.166;2023-10-19T13:00:44;9.90;;;6.07;;
23632;SDS011;11993;48.748;9.166;2023-10-19T13:03:12;11.57;;;7.25;;
23632;SDS011;11993;48.748;9.166;2023-10-19T13:05:43;12.93;;;8.55;;
23632;SDS011;11993;48.748;9.166;2023-10-19T13:08:10;12.80;;;7.88;;
23632;SDS011;11993;48.748;9.166;2023-10-19T13:10:39;13.77;;;8.77;;
23632;SDS011;11993;48.748;9.166;2023-10-19T13:13:07;13.73;;;10.27;;
23632;SDS011;11993;48.748;9.166;2023-10-19T13:15:37;11.30;;;8.77;;
23632;SDS011;11993;48.748;9.166;2023-10-19T13:18:07;16.08;;;10.73;;
23632;SDS011;11993;48.748;9.166;2023-10-19T13:20:50;17.80;;;10.05;;
23632;SDS011;11993;48.748;9.166;2023-10-19T13:23:18;17.10;;;11.27;;
23632;SDS011;11993;48.748;9.166;2023-10-19T13:25:49;20.55;;;13.48;;
23632;SDS011;11993;48.748;9.166;2023-10-19T13:28:19;12.90;;;10.43;;
23632;SDS011;11993;48.748;9.166;2023-10-19T13:30:46;17.38;;;11.60;;
23632;SDS011;11993;48.748;9.166;2023-10-19T13:33:18;15.02;;;10.50;;
23632;SDS011;11993;48.748;9.166;2023-10-19T13:35:46;16.73;;;12.40;;
23632;SDS011;11993;48.748;9.166;2023-10-19T13:38:12;14.32;;;10.82;;
23632;SDS011;11993;48.748;9.166;2023-10-19T13:40:39;17.52;;;12.07;;
23632;SDS011;11993;48.748;9.166;2023-10-19T13:43:06;17.30;;;10.75;;
23632;SDS011;11993;48.748;9.166;2023-10-19T13:45:33;15.35;;;10.90;;
23632;SDS011;11993;48.748;9.166;2023-10-19T13:48:00;16.65;;;10.80;;
23632;SDS011;11993;48.748;9.166;2023-10-19T13:50:30;13.80;;;10.63;;
23632;SDS011;11993;48.748;9.166;2023-10-19T13:52:56;12.63;;;10.15;;
23632;SDS011;11993;48.748;9.166;2023-10-19T13:55:22;14.15;;;10.25;;
23632;SDS011;11993;48.748;9.166;2023-10-19T13:57:48;13.90;;;10.45;;
23632;SDS011;11993;48.748;9.166;2023-10-19T14:00:15;17.10;;;11.18;;
23632;SDS011;11993;48.748;9.166;2023-10-19T14:02:48;15.82;;;10.57;;
23632;SDS011;11993;48.748;9.166;2023-10-19T14:05:14;11.73;;;9.45;;
23632;SDS011;11993;48.748;9.166;2023-10-19T14:07:40;13.85;;;9.82;;
23632;SDS011;11993;48.748;9.166;2023-10-19T14:10:06;14.48;;;10.52;;
23632;SDS011;11993;48.748;9.166;2023-10-19T14:12:34;9.90;;;8.02;;
23632;SDS011;11993;48.748;9.166;2023-10-19T14:15:02;9.77;;;8.50;;
23632;SDS011;11993;48.748;9.166;2023-10-19T14:17:28;13.70;;;7.82;;
23632;SDS011;11993;48.748;9.166;2023-10-19T14:19:55;13.15;;;8.65;;
23632;SDS011;11993;48.748;9.166;2023-10-19T14:22:20;13.13;;;8.57;;
23632;SDS011;11993;48.748;9.166;2023-10-19T14:24:46;20.95;;;15.07;;
23632;SDS011;11993;48.748;9.166;2023-10-19T14:27:12;18.15;;;12.38;;
23632;SDS011;11993;48.748;9.166;2023-10-19T14:29:38;18.33;;;9.80;;
23632;SDS011;11993;48.748;9.166;2023-10-19T14:32:04;16.58;;;9.90;;
23632;SDS011;11993;48.748;9.166;2023-10-19T14:34:29;13.57;;;9.95;;
23632;SDS011;11993;48.748;9.166;2023-10-19T14:36:55;15.18;;;11.10;;
23632;SDS011;11993;48.748;9.166;2023-10-19T14:39:21;10.95;;;8.52;;
23632;SDS011;11993;48.748;9.166;2023-10-19T14:41:46;12.60;;;9.90;;
23632;SDS011;11993;48.748;9.166;2023-10-19T14:44:12;13.65;;;9.02;;
23632;SDS011;11993;48.748;9.166;2023-10-19T14:46:37;17.70;;;9.50;;
23632;SDS011;11993;48.748;9.166;2023-10-19T14:49:03;16.27;;;9.82;;
23632;SDS011;11993;48.748;9.166;2023-10-19T14:51:29;17.55;;;11.30;;
23632;SDS011;11993;48.748;9.166;2023-10-19T14:53:55;18.83;;;12.20;;